createdAt,value
2018-04-30T16:41:44.538Z,16.75
2018-04-30T16:42:44.300Z,16.42
2018-04-30T16:44:39.550Z,16.66
2018-04-30T16:45:39.446Z,16.67
2018-04-30T16:47:34.921Z,16.93
2018-04-30T16:48:34.619Z,16.82
2018-04-30T16:49:34.567Z,16.70
2018-04-30T16:50:34.501Z,16.75
2018-04-30T16:51:34.423Z,16.82
2018-04-30T16:52:34.361Z,16.68
2018-04-30T16:53:34.274Z,16.58
2018-04-30T16:54:34.202Z,16.66
2018-04-30T16:55:34.132Z,16.48
2018-04-30T16:56:34.068Z,16.56
2018-04-30T16:57:34.016Z,16.53
2018-04-30T16:58:33.966Z,16.53
2018-04-30T16:59:33.882Z,16.63
2018-04-30T17:00:33.800Z,16.38
2018-04-30T17:01:33.741Z,16.42
2018-04-30T17:02:33.669Z,16.39
2018-04-30T17:03:33.630Z,16.53
2018-04-30T17:04:33.540Z,16.60
2018-04-30T17:05:33.454Z,16.67
2018-04-30T17:06:33.431Z,16.68
2018-04-30T17:07:33.345Z,16.75
2018-04-30T17:08:33.254Z,16.88
2018-04-30T17:09:33.217Z,16.91
2018-04-30T17:10:33.186Z,16.64
2018-04-30T17:11:33.061Z,16.70
2018-04-30T17:12:33.010Z,16.75
2018-04-30T17:13:32.943Z,16.83
2018-04-30T17:14:32.878Z,16.85
2018-04-30T17:15:32.818Z,16.96
2018-04-30T17:16:32.750Z,16.96
2018-04-30T17:17:32.704Z,16.79
2018-04-30T17:18:32.605Z,16.86
2018-04-30T17:19:32.572Z,16.94
2018-04-30T17:20:32.466Z,16.79
2018-04-30T17:21:32.439Z,16.70
2018-04-30T17:22:32.345Z,16.75
2018-04-30T17:23:32.281Z,16.61
2018-04-30T17:24:32.218Z,16.61
2018-04-30T17:25:32.159Z,16.57
2018-04-30T17:26:32.072Z,16.60
2018-04-30T17:27:32.040Z,16.76
2018-04-30T17:28:31.957Z,16.68
2018-04-30T17:29:31.901Z,16.68
2018-04-30T17:30:31.868Z,16.70
2018-04-30T17:31:31.745Z,16.70
2018-04-30T17:32:31.686Z,16.67
2018-04-30T17:33:31.615Z,16.53
2018-04-30T17:34:31.570Z,16.57
2018-04-30T17:35:31.506Z,16.57
2018-04-30T17:36:31.479Z,16.43
2018-04-30T17:37:31.378Z,16.45
2018-04-30T17:38:31.380Z,16.38
2018-04-30T17:39:31.230Z,16.46
2018-04-30T17:40:31.169Z,16.43
2018-04-30T17:41:31.128Z,16.33
2018-04-30T17:42:31.047Z,16.28
2018-04-30T17:43:30.959Z,16.30
2018-04-30T17:44:30.891Z,16.27
2018-04-30T17:45:30.824Z,16.38
2018-04-30T17:46:30.779Z,16.34
2018-04-30T17:47:30.723Z,16.17
2018-04-30T17:48:30.631Z,16.21
2018-04-30T17:49:30.580Z,16.12
2018-04-30T17:50:30.494Z,16.00
2018-04-30T17:51:30.435Z,15.76
2018-04-30T17:52:30.379Z,15.78
2018-04-30T17:53:30.324Z,15.84
2018-04-30T17:54:30.241Z,15.49
2018-04-30T17:55:30.193Z,15.50
2018-04-30T17:56:30.106Z,15.32
2018-04-30T17:57:30.058Z,15.31
2018-04-30T17:58:29.972Z,15.34
2018-04-30T17:59:29.912Z,15.23
2018-04-30T18:00:29.841Z,15.32
2018-04-30T18:01:29.781Z,15.34
2018-04-30T18:02:29.756Z,15.39
2018-04-30T18:03:29.657Z,15.51
2018-04-30T18:04:29.584Z,15.60
2018-04-30T18:05:29.514Z,15.69
2018-04-30T18:06:29.458Z,15.72
2018-04-30T18:07:29.392Z,15.59
2018-04-30T18:08:29.312Z,15.62
2018-04-30T18:09:29.270Z,15.44
2018-04-30T18:10:29.187Z,15.50
2018-04-30T18:11:29.135Z,15.54
2018-04-30T18:12:29.043Z,15.46
2018-04-30T18:13:28.975Z,15.56
2018-04-30T18:14:28.908Z,15.59
2018-04-30T18:15:28.845Z,15.76
2018-04-30T18:16:28.778Z,15.74
2018-04-30T18:17:28.716Z,15.76
2018-04-30T18:18:28.646Z,15.92
2018-04-30T18:19:28.647Z,15.97
2018-04-30T18:20:28.518Z,16.12
2018-04-30T18:21:28.463Z,16.05
2018-04-30T18:22:28.386Z,16.23
2018-04-30T18:23:28.326Z,16.20
2018-04-30T18:24:28.269Z,16.21
2018-04-30T18:25:28.216Z,16.15
2018-04-30T18:26:28.136Z,16.17
2018-04-30T18:27:28.052Z,16.23
2018-04-30T18:28:27.986Z,16.23
2018-04-30T18:29:27.937Z,16.39
2018-04-30T18:30:27.862Z,16.38
2018-04-30T18:31:27.785Z,16.42
2018-04-30T18:32:27.719Z,16.46
2018-04-30T18:33:27.653Z,16.39
2018-04-30T18:34:27.589Z,16.52
2018-04-30T18:35:27.525Z,16.61
2018-04-30T18:36:27.517Z,16.52
2018-04-30T18:37:27.393Z,16.49
2018-04-30T18:38:27.327Z,16.43
2018-04-30T18:39:27.275Z,16.42
2018-04-30T18:40:27.193Z,16.45
2018-04-30T18:41:27.148Z,16.49
2018-04-30T18:42:27.082Z,16.43
2018-04-30T18:43:27.046Z,16.56
2018-04-30T18:44:26.971Z,16.48
2018-04-30T18:45:26.911Z,16.50
2018-04-30T18:46:26.831Z,16.34
2018-04-30T18:47:26.735Z,16.35
2018-04-30T18:48:26.694Z,16.34
2018-04-30T18:49:26.606Z,16.15
2018-04-30T18:50:26.554Z,16.14
2018-04-30T18:51:26.498Z,16.12
2018-04-30T18:52:26.454Z,16.07
2018-04-30T18:53:26.340Z,16.09
2018-04-30T18:54:26.282Z,16.09
2018-04-30T18:55:26.209Z,16.12
2018-04-30T18:56:26.167Z,16.17
2018-04-30T18:57:26.107Z,16.14
2018-04-30T18:58:26.009Z,16.09
2018-04-30T18:59:25.943Z,16.08
2018-04-30T19:00:25.916Z,16.00
2018-04-30T19:01:25.815Z,15.90
2018-04-30T19:02:25.777Z,15.97
2018-04-30T19:03:25.677Z,15.84
2018-04-30T19:04:25.678Z,15.76
2018-04-30T19:05:25.571Z,15.65
2018-04-30T19:06:25.501Z,15.64
2018-04-30T19:07:25.440Z,15.71
2018-04-30T19:08:25.342Z,15.75
2018-04-30T19:09:25.288Z,15.76
2018-04-30T19:10:25.238Z,15.68
2018-04-30T19:11:25.165Z,15.46
2018-04-30T19:12:25.089Z,15.44
2018-04-30T19:13:25.172Z,15.49
2018-04-30T19:14:25.004Z,15.49
2018-04-30T19:15:24.892Z,15.53
2018-04-30T19:16:24.836Z,15.47
2018-04-30T19:17:24.761Z,15.35
2018-04-30T19:18:24.687Z,15.21
2018-04-30T19:19:24.671Z,15.21
2018-04-30T19:20:24.584Z,15.29
2018-04-30T19:21:24.511Z,15.43
2018-04-30T19:22:24.433Z,15.44
2018-04-30T19:23:24.696Z,15.53
2018-04-30T19:24:24.299Z,15.47
2018-04-30T19:25:24.264Z,15.32
2018-04-30T19:26:24.182Z,15.14
2018-04-30T19:27:24.092Z,15.23
2018-04-30T19:28:24.044Z,15.16
2018-04-30T19:29:23.981Z,15.14
2018-04-30T19:30:23.913Z,15.17
2018-04-30T19:31:23.881Z,15.01
2018-04-30T19:32:23.757Z,14.91
2018-04-30T19:33:23.699Z,14.86
2018-04-30T19:34:23.627Z,14.89
2018-04-30T19:35:23.560Z,14.99
2018-04-30T19:36:23.491Z,15.06
2018-04-30T19:37:23.447Z,15.07
2018-04-30T19:38:23.400Z,14.99
2018-04-30T19:39:23.302Z,14.92
2018-04-30T19:40:23.243Z,15.06
2018-04-30T19:41:23.164Z,15.17
2018-04-30T19:42:23.161Z,15.17
2018-04-30T19:43:23.042Z,15.19
2018-04-30T19:44:22.954Z,15.21
2018-04-30T19:45:22.989Z,15.31
2018-04-30T19:46:22.823Z,15.41
2018-04-30T19:47:22.762Z,15.21
2018-04-30T19:48:22.690Z,15.20
2018-04-30T19:49:22.624Z,15.10
2018-04-30T19:50:22.576Z,15.16
2018-04-30T19:51:22.511Z,15.17
2018-04-30T19:52:22.590Z,15.16
2018-04-30T19:53:22.364Z,15.20
2018-04-30T19:54:22.311Z,14.88
2018-04-30T19:55:22.227Z,14.83
2018-04-30T19:56:22.162Z,14.89
2018-04-30T19:57:22.105Z,14.75
2018-04-30T19:58:22.025Z,14.80
2018-04-30T19:59:21.983Z,14.69
2018-04-30T20:00:21.939Z,14.78
2018-04-30T20:01:21.845Z,14.75
2018-04-30T20:02:21.784Z,14.84
2018-04-30T20:03:21.693Z,14.89
2018-04-30T20:04:21.641Z,14.80
2018-04-30T20:05:21.593Z,14.80
2018-04-30T20:06:21.574Z,14.88
2018-04-30T20:07:21.449Z,14.83
2018-04-30T20:08:21.374Z,14.86
2018-04-30T20:09:21.301Z,14.81
2018-04-30T20:10:21.253Z,14.83
2018-04-30T20:11:21.161Z,14.91
2018-04-30T20:12:21.089Z,14.92
2018-04-30T20:13:21.028Z,14.75
2018-04-30T20:14:20.957Z,14.60
2018-04-30T20:15:20.904Z,14.51
2018-04-30T20:16:20.845Z,14.51
2018-04-30T20:17:20.773Z,14.46
2018-04-30T20:18:20.695Z,14.18
2018-04-30T20:19:20.621Z,14.18
2018-04-30T20:20:20.585Z,14.09
2018-04-30T20:21:20.489Z,14.20
2018-04-30T20:22:20.440Z,14.21
2018-04-30T20:23:20.381Z,14.17
2018-04-30T20:24:20.284Z,14.22
2018-04-30T20:25:20.210Z,13.97
2018-04-30T20:26:20.183Z,13.81
2018-04-30T20:27:20.177Z,13.62
2018-04-30T20:28:20.044Z,13.62
2018-04-30T20:29:19.940Z,13.64
2018-04-30T20:30:19.894Z,13.69
2018-04-30T20:31:19.811Z,13.81
2018-04-30T20:32:19.754Z,13.81
2018-04-30T20:33:19.688Z,13.87
2018-04-30T20:34:19.608Z,13.82
2018-04-30T20:35:19.539Z,13.92
2018-04-30T20:36:19.496Z,13.84
2018-04-30T20:37:19.456Z,13.38
2018-04-30T20:38:19.389Z,13.33
2018-04-30T20:39:19.284Z,13.42
2018-04-30T20:40:19.208Z,13.51
2018-04-30T20:41:19.149Z,13.59
2018-04-30T20:42:19.082Z,13.55
2018-04-30T20:43:19.009Z,13.57
2018-04-30T20:44:18.952Z,13.59
2018-04-30T20:45:18.872Z,13.63
2018-04-30T20:46:18.835Z,13.64
2018-04-30T20:47:18.751Z,13.63
2018-04-30T20:48:18.651Z,13.77
2018-04-30T20:49:18.600Z,13.69
2018-04-30T20:50:18.595Z,13.75
2018-04-30T20:51:18.473Z,13.87
2018-04-30T20:52:18.403Z,13.95
2018-04-30T20:53:18.334Z,13.79
2018-04-30T20:54:18.268Z,13.78
2018-04-30T20:55:18.207Z,13.77
2018-04-30T20:56:18.112Z,13.71
2018-04-30T20:57:18.048Z,13.79
2018-04-30T20:58:17.990Z,13.82
2018-04-30T20:59:17.947Z,13.92
2018-04-30T21:00:17.838Z,13.97
2018-04-30T21:01:17.800Z,14.02
2018-04-30T21:02:17.720Z,13.99
2018-04-30T21:03:17.659Z,13.77
2018-04-30T21:04:17.593Z,13.70
2018-04-30T21:05:17.525Z,13.87
2018-04-30T21:06:17.433Z,13.81
2018-04-30T21:07:17.371Z,13.81
2018-04-30T21:08:17.302Z,13.75
2018-04-30T21:09:17.268Z,13.81
2018-04-30T21:10:17.177Z,13.75
2018-04-30T21:11:17.093Z,13.71
2018-04-30T21:12:17.043Z,13.60
2018-04-30T21:13:16.974Z,13.71
2018-04-30T21:14:16.904Z,13.79
2018-04-30T21:15:16.824Z,13.84
2018-04-30T21:16:16.775Z,13.88
2018-04-30T21:17:16.708Z,13.78
2018-04-30T21:18:16.637Z,13.84
2018-04-30T21:19:16.577Z,13.77
2018-04-30T21:20:16.503Z,13.79
2018-04-30T21:21:16.408Z,13.66
2018-04-30T21:22:16.347Z,13.62
2018-04-30T21:23:16.287Z,13.66
2018-04-30T21:24:16.269Z,13.82
2018-04-30T21:25:16.166Z,13.84
2018-04-30T21:26:16.088Z,13.95
2018-04-30T21:27:16.023Z,13.84
2018-04-30T21:28:15.958Z,13.79
2018-04-30T21:29:15.877Z,13.82
2018-04-30T21:30:15.816Z,13.75
2018-04-30T21:31:15.741Z,13.89
2018-04-30T21:32:15.679Z,13.88
2018-04-30T21:33:15.610Z,13.87
2018-04-30T21:34:15.531Z,13.81
2018-04-30T21:35:15.510Z,13.84
2018-04-30T21:36:15.405Z,13.79
2018-04-30T21:37:15.341Z,13.82
2018-04-30T21:38:15.296Z,13.82
2018-04-30T21:39:15.243Z,13.82
2018-04-30T21:40:15.165Z,13.75
2018-04-30T21:41:15.079Z,13.75
2018-04-30T21:42:15.019Z,13.84
2018-04-30T21:43:14.914Z,13.81
2018-04-30T21:44:14.881Z,13.82
2018-04-30T21:45:14.805Z,13.85
2018-04-30T21:46:14.738Z,13.81
2018-04-30T21:47:14.655Z,13.77
2018-04-30T21:48:14.579Z,13.42
2018-04-30T21:49:14.508Z,13.39
2018-04-30T21:50:14.446Z,13.39
2018-04-30T21:51:14.390Z,13.33
2018-04-30T21:52:14.309Z,13.28
2018-04-30T21:53:14.239Z,13.36
2018-04-30T21:54:14.196Z,13.32
2018-04-30T21:55:14.097Z,13.41
2018-04-30T21:56:14.048Z,13.52
2018-04-30T21:57:13.982Z,13.59
2018-04-30T21:58:13.891Z,13.60
2018-04-30T21:59:13.831Z,13.70
2018-04-30T22:00:13.780Z,13.71
2018-04-30T22:01:13.709Z,13.73
2018-04-30T22:02:13.646Z,13.71
2018-04-30T22:03:13.564Z,13.81
2018-04-30T22:04:13.504Z,13.84
2018-04-30T22:05:13.441Z,13.84
2018-04-30T22:06:13.368Z,13.79
2018-04-30T22:07:13.289Z,13.69
2018-04-30T22:08:13.245Z,13.62
2018-04-30T22:09:13.143Z,13.45
2018-04-30T22:10:13.095Z,13.46
2018-04-30T22:11:13.015Z,13.46
2018-04-30T22:12:13.001Z,13.57
2018-04-30T22:13:12.883Z,13.48
2018-04-30T22:14:12.823Z,13.51
2018-04-30T22:15:12.755Z,13.49
2018-04-30T22:16:12.668Z,13.59
2018-04-30T22:17:12.600Z,13.70
2018-04-30T22:18:12.555Z,13.66
2018-04-30T22:19:12.467Z,13.66
2018-04-30T22:20:12.421Z,13.67
2018-04-30T22:21:12.345Z,13.71
2018-04-30T22:22:12.297Z,13.67
2018-04-30T22:23:12.218Z,13.60
2018-04-30T22:24:12.136Z,13.84
2018-04-30T22:25:12.064Z,13.84
2018-04-30T22:26:11.993Z,13.84
2018-04-30T22:27:11.941Z,13.91
2018-04-30T22:28:11.865Z,13.91
2018-04-30T22:29:11.787Z,13.84
2018-04-30T22:30:11.725Z,13.95
2018-04-30T22:31:11.647Z,13.99
2018-04-30T22:32:11.589Z,13.99
2018-04-30T22:33:11.540Z,14.06
2018-04-30T22:34:11.454Z,13.75
2018-04-30T22:35:11.410Z,13.85
2018-04-30T22:36:11.327Z,13.84
2018-04-30T22:37:11.270Z,13.85
2018-04-30T22:38:11.201Z,13.84
2018-04-30T22:39:11.126Z,13.84
2018-04-30T22:40:11.061Z,13.79
2018-04-30T22:41:10.984Z,13.81
2018-04-30T22:42:10.909Z,13.59
2018-04-30T22:43:10.899Z,13.64
2018-04-30T22:44:10.798Z,13.57
2018-04-30T22:45:10.737Z,13.69
2018-04-30T22:46:10.633Z,13.64
2018-04-30T22:47:10.567Z,13.70
2018-04-30T22:48:10.518Z,13.75
2018-04-30T22:49:10.462Z,13.79
2018-04-30T22:50:10.378Z,13.84
2018-04-30T22:51:10.293Z,13.82
2018-04-30T22:52:10.249Z,13.79
2018-04-30T22:53:10.172Z,13.78
2018-04-30T22:54:10.111Z,13.67
2018-04-30T22:55:10.073Z,13.67
2018-04-30T22:56:09.999Z,13.75
2018-04-30T22:57:09.890Z,13.66
2018-04-30T22:58:09.836Z,13.73
2018-04-30T22:59:09.748Z,13.71
2018-04-30T23:00:09.699Z,13.70
2018-04-30T23:01:09.623Z,13.70
2018-04-30T23:02:09.562Z,13.69
2018-04-30T23:03:09.474Z,13.67
2018-04-30T23:04:09.409Z,13.70
2018-04-30T23:05:09.339Z,13.57
2018-04-30T23:06:09.277Z,13.42
2018-04-30T23:07:09.201Z,13.46
2018-04-30T23:08:09.156Z,13.42
2018-04-30T23:09:09.071Z,13.49
2018-04-30T23:10:08.997Z,13.60
2018-04-30T23:11:08.937Z,13.41
2018-04-30T23:12:08.867Z,13.41
2018-04-30T23:13:08.814Z,13.33
2018-04-30T23:14:08.740Z,13.32
2018-04-30T23:15:08.684Z,13.38
2018-04-30T23:16:08.607Z,13.46
2018-04-30T23:17:08.533Z,13.33
2018-04-30T23:18:08.489Z,13.44
2018-04-30T23:19:08.402Z,13.49
2018-04-30T23:20:08.335Z,13.46
2018-04-30T23:21:08.270Z,13.23
2018-04-30T23:22:08.202Z,13.20
2018-04-30T23:23:08.125Z,13.11
2018-04-30T23:24:08.049Z,13.08
2018-04-30T23:25:07.999Z,12.97
2018-04-30T23:26:07.949Z,12.97
2018-04-30T23:27:07.857Z,12.87
2018-04-30T23:28:07.773Z,12.95
2018-04-30T23:29:07.707Z,13.12
2018-04-30T23:30:07.649Z,13.11
2018-04-30T23:31:07.592Z,13.17
2018-04-30T23:32:07.516Z,13.29
2018-04-30T23:33:07.443Z,13.38
2018-04-30T23:34:07.387Z,13.41
2018-04-30T23:35:07.293Z,13.46
2018-04-30T23:36:07.241Z,13.49
2018-04-30T23:37:07.159Z,13.54
2018-04-30T23:38:07.105Z,13.57
2018-04-30T23:39:07.039Z,13.46
2018-04-30T23:40:06.968Z,13.44
2018-04-30T23:41:06.886Z,13.48
2018-04-30T23:42:06.817Z,13.36
2018-04-30T23:43:06.760Z,13.36
2018-04-30T23:44:06.675Z,13.44
2018-04-30T23:45:06.634Z,13.46
2018-04-30T23:46:06.539Z,13.62
2018-04-30T23:47:06.479Z,13.49
2018-04-30T23:48:06.434Z,13.52
2018-04-30T23:49:06.343Z,13.46
2018-04-30T23:50:06.281Z,13.33
2018-04-30T23:51:06.209Z,13.26
2018-04-30T23:52:06.166Z,13.26
2018-04-30T23:53:06.090Z,13.33
2018-04-30T23:54:06.023Z,13.30
2018-04-30T23:55:05.956Z,13.33
2018-04-30T23:56:05.873Z,13.26
2018-04-30T23:57:05.814Z,13.25
2018-04-30T23:58:05.742Z,13.38
2018-04-30T23:59:05.655Z,13.20
